Startpagina
METAR-TAF:

METAR-TAF

Vliegvelden :

Flughafen Mönchengladbach

Mönchengladbach, Duitsland

breedte: 51-13-49N, lengte: 006-30-16E, hoogte: 38 m

Actueel weer

Dit bericht is 6 uur en het 24 minuten geleden gemaakt, om 18:20 UTC
Wind 6 kt uit het noordnoordwesten
Temperatuur 13°C
Vochtigheid 67%
Druk 1023 hPa
Zicht 10 km of meer
geen wolken onder 1500 m en geen cumulonimbus

METAR: EDLN 171820Z 34006KT CAVOK 13/07 Q1023

Tijdstip: 02:44 (00:44 UTC)

Verwachting

Dit bericht is 7 uur en het 44 minuten geleden gemaakt, om 17:00 UTC
Verwachting geldig van 17 om 18 UTC tot 18 om 03 UTC
Wind 10 kt uit het noordnoordwesten
Zicht 10 km of meer
Weinig wolken op 4000 ft
Wijzigt naar
van 17 om 18 UTC tot 17 om 20 UTC
Wind 5 kt uit het noordwesten

TAF: EDLN 171700Z 1718/1803 33010KT 9999 FEW040 BECMG 1718/1720 32005KT

Waarnemingen en weersverwachtingen van meer dan 4000 vliegvelden (METAR en TAF).

De beschikbare stations zijn de gele en rode punten op de kaart.

Ga met uw muis naar het station om de naam te zien.

Klik dan om waarnemingen en weersverwachtingen te zien.

kaart wijzigen: klik op de groene knoppen met een zwart kruis om in te zoomen, op de groene knop met een streepje om uit te zoomen of op de groene pijlen voor aangrenzende kaarten.


METAR-TAF: